createdAt,value
2018-11-07T00:01:23.535Z,9.18
2018-11-07T00:03:51.050Z,12.35
2018-11-07T00:06:18.502Z,9.45
2018-11-07T00:08:46.023Z,11.55
2018-11-07T00:11:13.865Z,12.13
2018-11-07T00:13:41.368Z,10.65
2018-11-07T00:16:08.844Z,8.93
2018-11-07T00:18:36.319Z,8.55
2018-11-07T00:21:03.948Z,9.23
2018-11-07T00:23:31.496Z,10.10
2018-11-07T00:25:58.947Z,11.30
2018-11-07T00:28:26.476Z,10.93
2018-11-07T00:30:53.948Z,10.23
2018-11-07T00:33:21.392Z,10.45
2018-11-07T00:35:48.894Z,11.75
2018-11-07T00:38:16.377Z,9.65
2018-11-07T00:40:43.867Z,11.60
2018-11-07T00:43:11.395Z,10.40
2018-11-07T00:45:38.830Z,10.25
2018-11-07T00:48:06.338Z,9.65
2018-11-07T00:50:33.823Z,10.23
2018-11-07T00:53:01.284Z,13.38
2018-11-07T00:55:28.779Z,9.20
2018-11-07T00:57:56.905Z,7.78
2018-11-07T01:00:24.453Z,10.38
2018-11-07T01:02:51.933Z,10.72
2018-11-07T01:05:20.443Z,8.78
2018-11-07T01:07:48.049Z,9.55
2018-11-07T01:10:15.676Z,12.73
2018-11-07T01:12:43.685Z,7.35
2018-11-07T01:15:11.845Z,9.08
2018-11-07T01:17:39.357Z,11.90
2018-11-07T01:20:08.592Z,10.28
2018-11-07T01:22:36.075Z,11.65
2018-11-07T01:25:04.442Z,10.85
2018-11-07T01:27:31.925Z,7.75
2018-11-07T01:29:59.405Z,8.68
2018-11-07T01:32:26.893Z,9.55
2018-11-07T01:34:54.371Z,7.20
2018-11-07T01:37:21.843Z,8.35
2018-11-07T01:39:49.363Z,10.20
2018-11-07T01:42:17.126Z,8.58
2018-11-07T01:44:48.155Z,7.67
2018-11-07T01:47:15.641Z,7.33
2018-11-07T01:49:43.795Z,8.18
2018-11-07T01:52:11.258Z,6.92
2018-11-07T01:54:38.743Z,8.63
2018-11-07T01:57:06.246Z,8.70
2018-11-07T01:59:33.722Z,9.70
2018-11-07T02:02:01.175Z,8.20
2018-11-07T02:04:28.646Z,7.35
2018-11-07T02:06:56.108Z,7.78
2018-11-07T02:09:23.626Z,8.70
2018-11-07T02:11:51.101Z,8.40
2018-11-07T02:14:18.775Z,7.47
2018-11-07T02:16:46.292Z,9.33
2018-11-07T02:19:14.505Z,9.10
2018-11-07T02:21:42.018Z,7.58
2018-11-07T02:24:09.522Z,11.85
2018-11-07T02:26:36.980Z,6.72
2018-11-07T02:29:04.506Z,8.68
2018-11-07T02:31:32.011Z,8.53
2018-11-07T02:33:59.545Z,8.10
2018-11-07T02:36:27.030Z,8.90
2018-11-07T02:38:54.708Z,7.80
2018-11-07T02:41:22.151Z,8.35
2018-11-07T02:43:49.583Z,9.15
2018-11-07T02:46:17.099Z,9.18
2018-11-07T02:48:44.923Z,7.90
2018-11-07T02:51:12.418Z,10.48
2018-11-07T02:53:40.932Z,9.30
2018-11-07T02:56:08.974Z,9.53
2018-11-07T02:58:36.486Z,9.18
2018-11-07T03:01:04.642Z,9.13
2018-11-07T03:03:32.091Z,8.63
2018-11-07T03:05:59.719Z,8.30
2018-11-07T03:08:30.320Z,8.53
2018-11-07T03:10:57.817Z,8.50
2018-11-07T03:13:25.254Z,8.70
2018-11-07T03:15:54.009Z,8.18
2018-11-07T03:18:21.532Z,11.12
2018-11-07T03:20:49.030Z,8.20
2018-11-07T03:23:16.502Z,8.00
2018-11-07T03:25:44.284Z,7.50
2018-11-07T03:28:11.767Z,9.80
2018-11-07T03:30:39.258Z,6.90
2018-11-07T03:33:06.825Z,7.80
2018-11-07T03:35:34.664Z,7.50
2018-11-07T03:38:02.103Z,6.95
2018-11-07T03:40:29.664Z,8.43
2018-11-07T03:42:57.176Z,6.80
2018-11-07T03:45:30.474Z,7.17
2018-11-07T03:47:58.029Z,6.90
2018-11-07T03:50:25.646Z,8.03
2018-11-07T03:52:53.126Z,6.25
2018-11-07T03:55:20.768Z,7.60
2018-11-07T03:57:48.237Z,6.95
2018-11-07T04:00:15.695Z,6.35
2018-11-07T04:02:43.947Z,10.88
2018-11-07T04:05:11.562Z,8.15
2018-11-07T04:07:39.911Z,5.80
2018-11-07T04:10:07.580Z,6.97
2018-11-07T04:12:35.041Z,7.80
2018-11-07T04:15:02.508Z,6.62
2018-11-07T04:17:30.286Z,7.85
2018-11-07T04:19:57.948Z,6.53
2018-11-07T04:22:25.407Z,6.85
2018-11-07T04:24:52.971Z,6.12
2018-11-07T04:27:20.462Z,7.10
2018-11-07T04:29:47.966Z,6.87
2018-11-07T04:32:15.932Z,6.25
2018-11-07T04:34:43.411Z,9.23
2018-11-07T04:37:10.867Z,9.63
2018-11-07T04:39:39.610Z,9.00
2018-11-07T04:42:07.087Z,7.12
2018-11-07T04:44:34.533Z,8.75
2018-11-07T04:47:02.027Z,10.03
2018-11-07T04:49:29.475Z,6.97
2018-11-07T04:51:56.959Z,9.35
2018-11-07T04:54:24.536Z,10.83
2018-11-07T04:56:52.009Z,7.12
2018-11-07T04:59:19.507Z,6.65
2018-11-07T05:01:47.087Z,7.10
2018-11-07T05:04:15.540Z,7.35
2018-11-07T05:06:43.240Z,7.00
2018-11-07T05:09:10.683Z,8.48
2018-11-07T05:11:38.259Z,7.87
2018-11-07T05:14:05.799Z,8.03
2018-11-07T05:16:33.635Z,7.10
2018-11-07T05:19:01.120Z,7.22
2018-11-07T05:21:28.583Z,8.28
2018-11-07T05:23:56.039Z,8.55
2018-11-07T05:26:23.579Z,7.72
2018-11-07T05:28:51.000Z,7.22
2018-11-07T05:31:18.567Z,6.75
2018-11-07T05:33:46.143Z,5.60
2018-11-07T05:36:14.284Z,7.17
2018-11-07T05:38:41.812Z,7.72
2018-11-07T05:41:09.810Z,6.17
2018-11-07T05:43:37.239Z,4.60
2018-11-07T05:46:05.393Z,8.25
2018-11-07T05:48:33.198Z,6.42
2018-11-07T05:51:00.717Z,7.55
2018-11-07T05:53:28.190Z,6.87
2018-11-07T05:55:55.679Z,6.12
2018-11-07T05:58:23.634Z,5.50
2018-11-07T06:00:51.122Z,6.62
2018-11-07T06:03:18.622Z,7.30
2018-11-07T06:05:46.171Z,6.90
2018-11-07T06:08:14.414Z,7.50
2018-11-07T06:10:41.684Z,6.37
2018-11-07T06:13:09.227Z,5.10
2018-11-07T06:15:36.691Z,4.80
2018-11-07T06:18:04.225Z,4.78
2018-11-07T06:20:31.678Z,4.65
2018-11-07T06:22:59.186Z,6.08
2018-11-07T06:25:26.766Z,5.47
2018-11-07T06:27:54.248Z,5.33
2018-11-07T06:30:21.756Z,4.83
2018-11-07T06:32:49.287Z,7.25
2018-11-07T06:35:16.755Z,5.50
2018-11-07T06:37:44.714Z,4.80
2018-11-07T06:40:16.710Z,4.83
2018-11-07T06:42:44.633Z,4.50
2018-11-07T06:45:12.593Z,7.45
2018-11-07T06:47:40.589Z,5.22
2018-11-07T06:50:10.633Z,5.10
2018-11-07T06:52:38.501Z,4.90
2018-11-07T06:55:07.599Z,6.95
2018-11-07T06:57:35.494Z,5.53
2018-11-07T07:00:03.893Z,5.17
2018-11-07T07:02:31.742Z,4.28
2018-11-07T07:04:59.691Z,5.55
2018-11-07T07:07:27.611Z,5.58
2018-11-07T07:09:55.506Z,4.17
2018-11-07T07:12:23.699Z,6.03
2018-11-07T07:14:51.479Z,5.55
2018-11-07T07:17:19.422Z,4.75
2018-11-07T07:19:47.233Z,6.17
2018-11-07T07:22:14.983Z,6.15
2018-11-07T07:24:42.683Z,4.35
2018-11-07T07:27:10.408Z,4.80
2018-11-07T07:29:38.447Z,4.65
2018-11-07T07:32:06.354Z,5.83
2018-11-07T07:34:34.219Z,5.97
2018-11-07T07:37:02.103Z,3.65
2018-11-07T07:39:30.225Z,7.20
2018-11-07T07:41:58.171Z,6.70
2018-11-07T07:44:26.182Z,4.50
2018-11-07T07:46:54.194Z,5.40
2018-11-07T07:49:21.956Z,5.25
2018-11-07T07:51:49.570Z,6.78
2018-11-07T07:54:17.223Z,5.60
2018-11-07T07:56:44.910Z,4.37
2018-11-07T07:59:12.586Z,5.12
2018-11-07T08:01:40.364Z,6.28
2018-11-07T08:04:08.391Z,6.75
2018-11-07T08:06:37.093Z,5.62
2018-11-07T08:09:07.833Z,5.35
2018-11-07T08:11:36.326Z,5.17
2018-11-07T08:14:04.272Z,4.90
2018-11-07T08:16:31.913Z,4.35
2018-11-07T08:18:59.593Z,3.20
2018-11-07T08:21:27.310Z,6.00
2018-11-07T08:23:55.239Z,3.87
2018-11-07T08:26:23.087Z,4.28
2018-11-07T08:28:50.798Z,3.33
2018-11-07T08:31:18.776Z,4.00
2018-11-07T08:33:46.546Z,2.40
2018-11-07T08:36:14.264Z,4.35
2018-11-07T08:38:41.901Z,2.98
2018-11-07T08:41:09.591Z,3.83
2018-11-07T08:43:37.349Z,3.35
2018-11-07T08:46:05.195Z,3.05
2018-11-07T08:48:32.890Z,4.50
2018-11-07T08:51:00.731Z,2.12
2018-11-07T08:53:28.450Z,2.55
2018-11-07T08:55:56.157Z,1.80
2018-11-07T08:58:24.022Z,2.45
2018-11-07T09:00:51.792Z,1.83
2018-11-07T09:03:19.560Z,2.87
2018-11-07T09:05:47.537Z,3.00
2018-11-07T09:08:15.162Z,2.40
2018-11-07T09:10:42.814Z,1.80
2018-11-07T09:13:10.535Z,2.27
2018-11-07T09:15:38.149Z,2.00
2018-11-07T09:18:06.005Z,2.85
2018-11-07T09:20:33.666Z,2.00
2018-11-07T09:23:01.296Z,2.13
2018-11-07T09:25:28.912Z,2.33
2018-11-07T09:27:56.766Z,1.73
2018-11-07T09:30:24.519Z,6.30
2018-11-07T09:32:52.221Z,2.93
2018-11-07T09:35:20.616Z,1.50
2018-11-07T09:37:48.433Z,1.33
2018-11-07T09:40:18.838Z,4.03
2018-11-07T09:42:47.481Z,1.20
2018-11-07T09:45:16.448Z,1.13
2018-11-07T09:47:44.760Z,1.80
2018-11-07T09:50:14.062Z,3.23
2018-11-07T09:52:41.999Z,2.80
2018-11-07T09:55:11.810Z,2.20
2018-11-07T09:57:39.802Z,1.30
2018-11-07T10:00:10.079Z,4.83
2018-11-07T10:02:38.171Z,3.90
2018-11-07T10:05:06.646Z,1.20
2018-11-07T10:07:34.413Z,1.50
2018-11-07T10:10:02.106Z,1.30
2018-11-07T10:12:30.664Z,2.23
2018-11-07T10:14:58.403Z,1.63
2018-11-07T10:17:26.106Z,2.30
2018-11-07T10:19:53.985Z,1.27
2018-11-07T10:22:21.635Z,1.50
2018-11-07T10:24:49.320Z,1.97
2018-11-07T10:27:17.290Z,1.87
2018-11-07T10:29:45.378Z,1.77
2018-11-07T10:32:12.925Z,1.70
2018-11-07T10:34:40.617Z,3.33
2018-11-07T10:37:08.354Z,3.20
2018-11-07T10:39:36.055Z,2.80
2018-11-07T10:42:03.714Z,1.70
2018-11-07T10:44:31.402Z,1.33
2018-11-07T10:46:59.272Z,1.30
2018-11-07T10:49:26.978Z,1.30
2018-11-07T10:51:54.725Z,2.30
2018-11-07T10:54:22.516Z,1.70
2018-11-07T10:56:50.166Z,1.47
2018-11-07T10:59:17.966Z,2.20
2018-11-07T11:01:51.304Z,4.03
2018-11-07T11:04:19.287Z,1.40
2018-11-07T11:06:47.342Z,1.60
2018-11-07T11:09:15.008Z,1.40
2018-11-07T11:11:42.660Z,2.17
2018-11-07T11:14:10.296Z,1.30
2018-11-07T11:16:37.933Z,1.53
2018-11-07T11:19:05.750Z,2.20
2018-11-07T11:21:33.360Z,2.60
2018-11-07T11:24:07.174Z,1.50
2018-11-07T11:26:34.860Z,2.60
2018-11-07T11:29:02.469Z,1.50
2018-11-07T11:31:30.169Z,2.03
2018-11-07T11:33:57.943Z,1.43
2018-11-07T11:36:25.673Z,2.33
2018-11-07T11:38:53.304Z,2.73
2018-11-07T11:41:20.982Z,1.20
2018-11-07T11:43:48.689Z,3.10
2018-11-07T11:46:16.330Z,1.73
2018-11-07T11:48:44.235Z,3.13
2018-11-07T11:51:11.957Z,1.57
2018-11-07T11:53:39.915Z,1.30
2018-11-07T11:56:07.717Z,2.50
2018-11-07T11:58:35.399Z,2.20
2018-11-07T12:01:03.062Z,3.03
2018-11-07T12:03:30.784Z,3.63
2018-11-07T12:05:58.462Z,2.07
2018-11-07T12:08:26.434Z,1.70
2018-11-07T12:10:54.088Z,1.93
2018-11-07T12:13:21.816Z,1.07
2018-11-07T12:15:49.614Z,3.50
2018-11-07T12:18:17.363Z,1.80
2018-11-07T12:20:45.082Z,1.57
2018-11-07T12:23:12.743Z,1.40
2018-11-07T12:25:40.387Z,1.87
2018-11-07T12:28:08.342Z,2.63
2018-11-07T12:30:35.996Z,0.90
2018-11-07T12:33:03.647Z,3.47
2018-11-07T12:35:31.330Z,1.37
2018-11-07T12:37:58.995Z,1.97
2018-11-07T12:40:26.695Z,1.37
2018-11-07T12:42:54.633Z,1.30
2018-11-07T12:45:22.233Z,0.83
2018-11-07T12:47:49.886Z,1.70
2018-11-07T12:50:22.916Z,4.10
2018-11-07T12:52:50.580Z,1.20
2018-11-07T12:55:19.078Z,2.43
2018-11-07T12:57:46.960Z,1.50
2018-11-07T13:00:17.125Z,3.17
2018-11-07T13:02:47.740Z,1.17
2018-11-07T13:05:16.565Z,1.97
2018-11-07T13:07:45.207Z,0.90
2018-11-07T13:10:14.082Z,2.73
2018-11-07T13:12:43.515Z,1.43
2018-11-07T13:15:15.216Z,1.97
2018-11-07T13:17:43.025Z,3.40
2018-11-07T13:20:13.404Z,1.33
2018-11-07T13:22:41.595Z,2.77
2018-11-07T13:25:10.624Z,2.03
2018-11-07T13:27:40.557Z,1.70
2018-11-07T13:30:11.012Z,1.80
2018-11-07T13:32:38.886Z,0.80
2018-11-07T13:35:07.461Z,2.70
2018-11-07T13:37:35.449Z,2.07
2018-11-07T13:40:10.305Z,1.27
2018-11-07T13:42:38.235Z,3.57
2018-11-07T13:45:08.173Z,2.30
2018-11-07T13:47:36.125Z,1.00
2018-11-07T13:50:04.208Z,2.30
2018-11-07T13:52:37.056Z,1.40
2018-11-07T13:55:06.463Z,4.73
2018-11-07T13:57:34.469Z,1.27
2018-11-07T14:00:02.889Z,4.07
2018-11-07T14:02:30.850Z,1.90
2018-11-07T14:05:03.103Z,1.30
2018-11-07T14:07:30.944Z,3.50
2018-11-07T14:09:58.812Z,1.53
2018-11-07T14:12:26.756Z,1.37
2018-11-07T14:14:54.751Z,1.23
2018-11-07T14:17:23.717Z,2.07
2018-11-07T14:19:56.938Z,1.77
2018-11-07T14:22:24.852Z,1.40
2018-11-07T14:24:52.816Z,1.10
2018-11-07T14:27:20.787Z,1.20
2018-11-07T14:29:48.738Z,4.00
2018-11-07T14:34:52.010Z,2.60
2018-11-07T14:37:20.081Z,2.43
2018-11-07T14:39:48.335Z,1.70
2018-11-07T14:42:16.232Z,2.87
2018-11-07T14:44:46.618Z,2.00
2018-11-07T14:47:15.710Z,1.40
2018-11-07T14:49:43.870Z,1.53
2018-11-07T14:52:11.713Z,3.40
2018-11-07T14:54:39.605Z,1.23
2018-11-07T14:57:07.548Z,4.23
2018-11-07T14:59:35.489Z,2.03
2018-11-07T15:02:03.431Z,1.90
2018-11-07T15:04:31.249Z,1.30
2018-11-07T15:06:59.580Z,2.20
2018-11-07T15:09:27.489Z,1.17
2018-11-07T15:11:55.504Z,3.77
2018-11-07T15:14:23.781Z,1.50
2018-11-07T15:16:52.950Z,2.00
2018-11-07T15:19:20.789Z,1.93
2018-11-07T15:21:48.621Z,2.53
2018-11-07T15:24:16.553Z,1.20
2018-11-07T15:26:44.440Z,2.53
2018-11-07T15:29:12.287Z,1.60
2018-11-07T15:31:57.287Z,1.20
2018-11-07T15:34:25.245Z,3.20
2018-11-07T15:36:56.730Z,3.50
2018-11-07T15:39:24.623Z,2.03
2018-11-07T15:41:52.497Z,1.77
2018-11-07T15:44:20.478Z,1.73
2018-11-07T15:46:48.582Z,2.60
2018-11-07T15:49:16.582Z,1.23
2018-11-07T15:51:44.530Z,4.00
2018-11-07T15:54:12.349Z,5.17
2018-11-07T15:56:40.190Z,2.70
2018-11-07T15:59:08.159Z,2.73
2018-11-07T16:01:35.960Z,2.60
2018-11-07T16:04:03.853Z,3.80
2018-11-07T16:06:31.735Z,2.50
2018-11-07T16:08:59.779Z,3.43
2018-11-07T16:11:28.717Z,2.63
2018-11-07T16:13:56.746Z,5.60
2018-11-07T16:16:25.343Z,2.00
2018-11-07T16:18:53.332Z,5.77
2018-11-07T16:21:21.222Z,2.93
2018-11-07T16:23:49.248Z,2.27
2018-11-07T16:26:17.072Z,3.50
2018-11-07T16:28:44.988Z,4.53
2018-11-07T16:31:12.829Z,1.57
2018-11-07T16:33:40.903Z,3.30
2018-11-07T16:36:09.084Z,2.57
2018-11-07T16:38:37.042Z,3.10
2018-11-07T16:41:05.101Z,2.43
2018-11-07T16:43:32.950Z,2.20
2018-11-07T16:46:00.859Z,1.50
2018-11-07T16:48:28.858Z,4.07
2018-11-07T16:50:56.809Z,1.97
2018-11-07T16:53:25.260Z,1.53
2018-11-07T16:55:53.265Z,1.50
2018-11-07T16:58:22.888Z,2.17
2018-11-07T17:00:50.729Z,1.50
2018-11-07T17:03:18.834Z,2.60
2018-11-07T17:05:47.103Z,2.30
2018-11-07T17:08:15.027Z,1.83
2018-11-07T17:10:42.912Z,2.30
2018-11-07T17:13:10.583Z,1.60
2018-11-07T17:15:38.260Z,3.20
2018-11-07T17:18:06.040Z,2.00
2018-11-07T17:20:33.824Z,1.60
2018-11-07T17:23:01.650Z,2.00
2018-11-07T17:25:29.472Z,3.27
2018-11-07T17:27:57.088Z,2.20
2018-11-07T17:30:24.704Z,1.90
2018-11-07T17:32:52.303Z,1.63
2018-11-07T17:35:20.171Z,2.83
2018-11-07T17:37:48.095Z,1.77
2018-11-07T17:40:19.211Z,2.83
2018-11-07T17:42:47.423Z,4.40
2018-11-07T17:45:16.895Z,2.23
2018-11-07T17:47:45.195Z,3.03
2018-11-07T17:50:13.992Z,2.60
2018-11-07T17:52:41.932Z,2.60
2018-11-07T17:55:11.027Z,2.00
2018-11-07T17:58:01.767Z,2.10
2018-11-07T18:00:34.197Z,3.03
2018-11-07T18:03:03.145Z,2.63
2018-11-07T18:05:30.820Z,2.43
2018-11-07T18:07:58.477Z,4.47
2018-11-07T18:10:26.077Z,2.17
2018-11-07T18:12:54.091Z,2.03
2018-11-07T18:15:21.847Z,8.97
2018-11-07T18:17:49.453Z,2.50
2018-11-07T18:20:17.550Z,2.73
2018-11-07T18:22:45.163Z,4.10
2018-11-07T18:25:13.839Z,2.90
2018-11-07T18:27:41.885Z,2.97
2018-11-07T18:30:11.604Z,3.13
2018-11-07T18:32:39.518Z,2.10
2018-11-07T18:35:08.881Z,2.80
2018-11-07T18:37:36.678Z,2.10
2018-11-07T18:40:05.917Z,2.90
2018-11-07T18:42:33.575Z,2.73
2018-11-07T18:45:01.258Z,2.50
2018-11-07T18:47:28.896Z,2.80
2018-11-07T18:49:56.616Z,4.47
2018-11-07T18:52:24.362Z,2.73
2018-11-07T18:54:52.469Z,1.70
2018-11-07T18:57:20.325Z,3.50
2018-11-07T18:59:48.054Z,1.97
2018-11-07T19:02:15.701Z,3.00
2018-11-07T19:04:43.420Z,3.50
2018-11-07T19:07:11.126Z,1.73
2018-11-07T19:09:38.725Z,2.40
2018-11-07T19:12:06.407Z,1.70
2018-11-07T19:14:34.140Z,2.03
2018-11-07T19:17:01.861Z,2.10
2018-11-07T19:19:29.852Z,2.20
2018-11-07T19:21:58.522Z,2.13
2018-11-07T19:24:26.358Z,5.80
2018-11-07T19:26:54.285Z,2.93
2018-11-07T19:29:22.243Z,1.93
2018-11-07T19:31:49.917Z,2.90
2018-11-07T19:34:17.528Z,2.50
2018-11-07T19:36:45.521Z,2.57
2018-11-07T19:39:13.282Z,3.23
2018-11-07T19:41:41.083Z,2.67
2018-11-07T19:44:08.924Z,2.47
2018-11-07T19:46:36.906Z,2.10
2018-11-07T19:49:05.086Z,4.03
2018-11-07T19:51:34.540Z,2.50
2018-11-07T19:54:02.352Z,5.73
2018-11-07T19:56:29.941Z,2.40
2018-11-07T19:58:57.582Z,4.67
2018-11-07T20:01:25.225Z,4.27
2018-11-07T20:03:53.313Z,3.13
2018-11-07T20:06:21.030Z,2.53
2018-11-07T20:08:48.924Z,2.97
2018-11-07T20:11:16.569Z,2.17
2018-11-07T20:13:48.052Z,3.30
2018-11-07T20:16:15.702Z,4.27
2018-11-07T20:18:44.399Z,3.27
2018-11-07T20:21:15.813Z,4.17
2018-11-07T20:23:43.468Z,2.40
2018-11-07T20:26:11.146Z,1.73
2018-11-07T20:28:38.809Z,2.70
2018-11-07T20:31:07.708Z,2.43
2018-11-07T20:33:35.602Z,3.20
2018-11-07T20:36:03.500Z,2.87
2018-11-07T20:38:31.245Z,3.70
2018-11-07T20:40:59.248Z,2.43
2018-11-07T20:43:27.056Z,2.40
2018-11-07T20:45:54.965Z,1.97
2018-11-07T20:48:22.583Z,2.67
2018-11-07T20:50:50.408Z,2.87
2018-11-07T20:53:18.296Z,2.40
2018-11-07T20:55:46.326Z,2.03
2018-11-07T20:58:14.103Z,2.77
2018-11-07T21:00:41.764Z,4.23
2018-11-07T21:03:09.573Z,2.33
2018-11-07T21:05:37.294Z,1.90
2018-11-07T21:08:06.409Z,2.10
2018-11-07T21:10:34.059Z,2.30
2018-11-07T21:13:01.686Z,4.00
2018-11-07T21:15:30.267Z,2.93
2018-11-07T21:17:58.257Z,2.13
2018-11-07T21:20:26.028Z,2.50
2018-11-07T21:22:53.856Z,4.40
2018-11-07T21:25:21.518Z,2.30
2018-11-07T21:27:49.259Z,2.10
2018-11-07T21:30:17.018Z,2.50
2018-11-07T21:32:44.903Z,2.20
2018-11-07T21:35:12.869Z,2.20
2018-11-07T21:37:40.889Z,2.40
2018-11-07T21:40:13.140Z,1.80
2018-11-07T21:42:43.497Z,2.20
2018-11-07T21:45:12.910Z,3.67
2018-11-07T21:47:42.636Z,1.90
2018-11-07T21:50:12.662Z,2.80
2018-11-07T21:52:40.416Z,1.90
2018-11-07T21:55:08.449Z,3.37
2018-11-07T21:57:36.641Z,1.43
2018-11-07T22:00:09.088Z,3.20
2018-11-07T22:02:36.877Z,1.90
2018-11-07T22:05:05.642Z,1.70
2018-11-07T22:07:33.322Z,2.80
2018-11-07T22:10:01.236Z,2.10
2018-11-07T22:12:28.933Z,2.00
2018-11-07T22:14:56.791Z,2.80
2018-11-07T22:17:24.663Z,1.80
2018-11-07T22:19:52.568Z,2.60
2018-11-07T22:22:20.547Z,2.30
2018-11-07T22:24:48.554Z,2.13
2018-11-07T22:27:17.761Z,1.90
2018-11-07T22:29:46.415Z,1.70
2018-11-07T22:32:15.385Z,1.90
2018-11-07T22:34:45.043Z,2.33
2018-11-07T22:37:12.668Z,1.90
2018-11-07T22:39:40.332Z,2.03
2018-11-07T22:42:08.430Z,1.90
2018-11-07T22:44:36.120Z,2.13
2018-11-07T22:47:03.826Z,2.13
2018-11-07T22:49:31.581Z,2.90
2018-11-07T22:51:59.444Z,2.33
2018-11-07T22:54:28.381Z,2.17
2018-11-07T22:56:56.052Z,1.83
2018-11-07T22:59:24.665Z,2.40
2018-11-07T23:01:52.626Z,1.87
2018-11-07T23:04:22.046Z,2.87
2018-11-07T23:06:52.190Z,3.27
2018-11-07T23:09:20.141Z,2.97
2018-11-07T23:11:48.333Z,3.80
2018-11-07T23:14:16.182Z,2.20
2018-11-07T23:16:44.036Z,1.97
2018-11-07T23:19:13.432Z,1.60
2018-11-07T23:21:41.118Z,1.60
2018-11-07T23:24:08.904Z,2.20
2018-11-07T23:26:36.733Z,1.60
2018-11-07T23:29:05.206Z,1.93
2018-11-07T23:31:32.975Z,2.13
2018-11-07T23:34:01.610Z,2.97
2018-11-07T23:36:29.744Z,2.10
2018-11-07T23:38:58.704Z,2.30
2018-11-07T23:41:26.545Z,2.70
2018-11-07T23:43:54.723Z,2.07
2018-11-07T23:46:22.463Z,1.90
2018-11-07T23:48:50.100Z,4.47
2018-11-07T23:51:20.028Z,2.30
2018-11-07T23:53:48.047Z,2.27
2018-11-07T23:56:15.727Z,1.80
2018-11-07T23:58:43.390Z,2.10
